Disclaimer

Please do not use the information listed here in-flight or in-navigation, as they are not provided to us by the airports but are provided by volunteers, so they might be outdated.

Search


Regions


Airport information page

Radio informations:
STETTEN TWR - 122.1 MHz
LANGEN RADAR - 135.725 MHz
A/G - 40.6 MHz
STETTEN RADAR - 123.3 MHz

Airport informations:
Latitude: 49° 23' 30.60" N
Longitude: 009° 57' 29.40" E
Elevation: 1536 feet - 468 meters
Operating hours: Remarks
Operating agency: Military
Timezone: UTC+1(+2DT) - Last Sunday in March to last Sunday in October
Fuel: JP-8, SemiKeroscene MIL Spec T-83133, without icing inhibitor

100/130 MIL Spec, low lead, aviation gasoline (BLUE)

Runway information:
07/25 - 3320 x 98 feet< - >1012 x 30 meters

Recent METARs:
ETHN 210220Z 11011KT 9999 FEW290 M01/M03 Q1010 BLU+
ETHN 210220Z 11011KT 9999 FEW290 M01/M03 Q1010 BLU+
ETHN 210320Z 10007KT 9999 FEW290 M02/M03 Q1010 BLU+

Airport on the map: